createdAt,value
2023-09-17T00:01:16.504Z,18.98
2023-09-17T00:03:43.467Z,18.96
2023-09-17T00:06:10.260Z,18.95
2023-09-17T00:08:37.637Z,18.94
2023-09-17T00:11:04.392Z,18.91
2023-09-17T00:13:31.943Z,18.89
2023-09-17T00:15:58.960Z,18.87
2023-09-17T00:18:25.690Z,18.83
2023-09-17T00:20:52.380Z,18.82
2023-09-17T00:23:19.051Z,18.81
2023-09-17T00:25:45.974Z,18.76
2023-09-17T00:28:12.697Z,18.75
2023-09-17T00:30:39.483Z,18.72
2023-09-17T00:33:06.187Z,18.69
2023-09-17T00:35:32.919Z,18.66
2023-09-17T00:37:59.784Z,18.63
2023-09-17T00:40:30.152Z,18.61
2023-09-17T00:42:56.898Z,18.58
2023-09-17T00:45:23.951Z,18.58
2023-09-17T00:47:50.907Z,18.52
2023-09-17T00:50:17.852Z,18.49
2023-09-17T00:52:44.904Z,18.49
2023-09-17T00:55:11.952Z,18.47
2023-09-17T00:57:41.015Z,18.44
2023-09-17T01:00:08.507Z,18.41
2023-09-17T01:02:35.518Z,18.38
2023-09-17T01:05:02.614Z,18.35
2023-09-17T01:07:29.419Z,18.31
2023-09-17T01:09:56.261Z,18.32
2023-09-17T01:12:23.014Z,18.31
2023-09-17T01:14:49.835Z,18.29
2023-09-17T01:17:16.600Z,18.27
2023-09-17T01:19:43.425Z,18.26
2023-09-17T01:22:25.163Z,18.23
2023-09-17T01:25:05.481Z,18.22
2023-09-17T01:27:36.151Z,18.22
2023-09-17T01:30:03.315Z,18.19
2023-09-17T01:32:29.982Z,18.18
2023-09-17T01:34:57.797Z,18.16
2023-09-17T01:37:35.601Z,18.15
2023-09-17T01:40:09.260Z,18.12
2023-09-17T01:42:36.349Z,18.13
2023-09-17T01:45:04.047Z,18.09
2023-09-17T01:47:31.892Z,18.09
2023-09-17T01:49:59.138Z,18.09
2023-09-17T01:52:28.880Z,18.05
2023-09-17T01:54:55.644Z,18.05
2023-09-17T01:57:22.349Z,18.05
2023-09-17T01:59:49.250Z,18.03
2023-09-17T02:02:16.044Z,18.01
2023-09-17T02:04:43.474Z,17.99
2023-09-17T02:07:10.380Z,17.98
2023-09-17T02:09:37.029Z,17.97
2023-09-17T02:12:04.065Z,17.95
2023-09-17T02:14:30.851Z,17.93
2023-09-17T02:16:57.547Z,17.93
2023-09-17T02:19:24.328Z,17.90
2023-09-17T02:21:51.116Z,17.91
2023-09-17T02:24:17.737Z,17.89
2023-09-17T02:26:44.688Z,17.87
2023-09-17T02:29:11.347Z,17.85
2023-09-17T02:31:38.469Z,17.83
2023-09-17T02:34:05.283Z,17.80
2023-09-17T02:36:32.160Z,17.77
2023-09-17T02:38:58.915Z,17.74
2023-09-17T02:41:25.778Z,17.72
2023-09-17T02:43:52.665Z,17.70
2023-09-17T02:46:19.735Z,17.67
2023-09-17T02:48:47.065Z,17.64
2023-09-17T02:51:13.746Z,17.63
2023-09-17T02:53:40.480Z,17.62
2023-09-17T02:56:07.105Z,17.60
2023-09-17T02:58:33.809Z,17.59
2023-09-17T03:01:00.674Z,17.58
2023-09-17T03:03:27.421Z,17.58
2023-09-17T03:05:54.654Z,17.55
2023-09-17T03:08:22.786Z,17.45
2023-09-17T03:10:59.037Z,17.49
2023-09-17T03:13:25.838Z,17.51
2023-09-17T03:15:59.057Z,17.50
2023-09-17T03:18:26.586Z,17.48
2023-09-17T03:20:53.483Z,17.47
2023-09-17T03:23:20.188Z,17.47
2023-09-17T03:25:47.322Z,17.46
2023-09-17T03:28:14.222Z,17.47
2023-09-17T03:30:42.454Z,17.40
2023-09-17T03:33:09.259Z,17.48
2023-09-17T03:35:46.082Z,17.49
2023-09-17T03:38:13.439Z,17.49
2023-09-17T03:40:40.227Z,17.51
2023-09-17T03:43:07.937Z,17.51
2023-09-17T03:45:35.210Z,17.52
2023-09-17T03:48:02.216Z,17.52
2023-09-17T03:50:29.662Z,17.52
2023-09-17T03:52:59.881Z,17.51
2023-09-17T03:55:26.902Z,17.51
2023-09-17T03:57:56.673Z,17.50
2023-09-17T04:00:25.005Z,17.49
2023-09-17T04:02:52.734Z,17.48
2023-09-17T04:05:19.946Z,17.46
2023-09-17T04:07:47.480Z,17.43
2023-09-17T04:10:15.245Z,17.43
2023-09-17T04:12:43.106Z,17.38
2023-09-17T04:15:12.082Z,17.36
2023-09-17T04:17:38.804Z,17.34
2023-09-17T04:20:06.410Z,17.32
2023-09-17T04:22:33.106Z,17.28
2023-09-17T04:24:59.747Z,17.27
2023-09-17T04:27:26.535Z,17.25
2023-09-17T04:29:53.450Z,17.23
2023-09-17T04:32:20.493Z,17.22
2023-09-17T04:34:47.566Z,17.21
2023-09-17T04:37:14.475Z,17.20
2023-09-17T04:39:41.142Z,17.19
2023-09-17T04:42:07.939Z,17.17
2023-09-17T04:44:35.334Z,17.16
2023-09-17T04:47:03.722Z,17.15
2023-09-17T04:49:30.774Z,17.14
2023-09-17T04:51:57.826Z,17.13
2023-09-17T04:54:24.696Z,17.12
2023-09-17T04:56:52.026Z,17.11
2023-09-17T04:59:18.848Z,17.12
2023-09-17T05:01:45.937Z,17.12
2023-09-17T05:04:12.632Z,17.12
2023-09-17T05:06:39.344Z,17.11
2023-09-17T05:09:06.012Z,17.11
2023-09-17T05:11:33.570Z,17.10
2023-09-17T05:14:00.419Z,17.11
2023-09-17T05:16:27.364Z,17.11
2023-09-17T05:18:54.238Z,17.11
2023-09-17T05:21:20.910Z,17.11
2023-09-17T05:23:47.702Z,17.13
2023-09-17T05:26:14.537Z,17.14
2023-09-17T05:28:41.891Z,17.15
2023-09-17T05:31:08.843Z,17.17
2023-09-17T05:33:35.538Z,17.19
2023-09-17T05:36:04.194Z,17.22
2023-09-17T05:38:30.946Z,17.25
2023-09-17T05:40:57.792Z,17.28
2023-09-17T05:43:25.894Z,17.33
2023-09-17T05:45:52.623Z,17.38
2023-09-17T05:48:19.441Z,17.45
2023-09-17T05:50:46.240Z,17.51
2023-09-17T05:53:12.942Z,17.57
2023-09-17T05:55:39.614Z,17.63
2023-09-17T05:58:06.610Z,17.71
2023-09-17T06:00:33.299Z,17.78
2023-09-17T06:03:00.007Z,17.86
2023-09-17T06:05:26.672Z,17.96
2023-09-17T06:07:53.828Z,18.08
2023-09-17T06:10:20.957Z,18.19
2023-09-17T06:12:48.015Z,18.34
2023-09-17T06:15:15.166Z,18.48
2023-09-17T06:17:43.601Z,18.64
2023-09-17T06:20:10.481Z,18.79
2023-09-17T06:22:37.606Z,18.94
2023-09-17T06:25:05.143Z,19.07
2023-09-17T06:27:31.769Z,19.21
2023-09-17T06:29:58.582Z,19.35
2023-09-17T06:32:25.489Z,19.46
2023-09-17T06:34:52.451Z,19.55
2023-09-17T06:37:19.518Z,19.63
2023-09-17T06:39:48.687Z,19.68
2023-09-17T06:42:15.377Z,19.75
2023-09-17T06:44:41.954Z,19.85
2023-09-17T06:47:08.891Z,19.94
2023-09-17T06:49:35.682Z,20.03
2023-09-17T06:52:02.497Z,20.14
2023-09-17T06:54:29.122Z,20.25
2023-09-17T06:56:55.749Z,20.37
2023-09-17T06:59:22.432Z,20.45
2023-09-17T07:01:49.363Z,20.55
2023-09-17T07:04:16.286Z,20.67
2023-09-17T07:06:42.892Z,20.76
2023-09-17T07:09:09.594Z,20.89
2023-09-17T07:11:36.211Z,20.98
2023-09-17T07:14:03.316Z,21.10
2023-09-17T07:16:30.034Z,21.17
2023-09-17T07:18:56.734Z,21.26
2023-09-17T07:21:23.684Z,21.34
2023-09-17T07:23:50.558Z,21.40
2023-09-17T07:26:17.437Z,21.45
2023-09-17T07:28:44.059Z,21.52
2023-09-17T07:31:14.682Z,21.59
2023-09-17T07:33:41.397Z,21.66
2023-09-17T07:36:08.103Z,21.75
2023-09-17T07:38:35.040Z,21.86
2023-09-17T07:41:01.818Z,21.96
2023-09-17T07:43:28.619Z,22.07
2023-09-17T07:45:55.437Z,22.17
2023-09-17T07:48:22.233Z,22.26
2023-09-17T07:51:02.480Z,22.36
2023-09-17T07:53:29.244Z,22.46
2023-09-17T07:55:55.954Z,22.55
2023-09-17T07:58:22.722Z,22.63
2023-09-17T08:00:49.443Z,22.75
2023-09-17T08:03:19.771Z,22.82
2023-09-17T08:05:50.577Z,22.90
2023-09-17T08:08:17.593Z,22.96
2023-09-17T08:10:44.310Z,23.03
2023-09-17T08:13:11.055Z,23.10
2023-09-17T08:15:37.758Z,23.15
2023-09-17T08:18:04.732Z,23.21
2023-09-17T08:20:31.509Z,23.27
2023-09-17T08:22:58.279Z,23.34
2023-09-17T08:25:25.450Z,23.42
2023-09-17T08:27:53.020Z,23.49
2023-09-17T08:30:20.042Z,23.55
2023-09-17T08:32:47.227Z,23.63
2023-09-17T08:35:14.010Z,23.70
2023-09-17T08:37:40.728Z,23.74
2023-09-17T08:40:08.368Z,23.81
2023-09-17T08:42:35.568Z,23.85
2023-09-17T08:45:03.624Z,23.93
2023-09-17T08:47:30.544Z,23.98
2023-09-17T08:49:57.445Z,24.05
2023-09-17T08:52:26.980Z,24.08
2023-09-17T08:54:54.668Z,24.16
2023-09-17T08:57:23.557Z,24.21
2023-09-17T08:59:58.311Z,24.28
2023-09-17T09:02:29.956Z,24.36
2023-09-17T09:04:57.921Z,24.44
2023-09-17T09:07:25.066Z,24.45
2023-09-17T09:09:52.734Z,24.55
2023-09-17T09:12:20.236Z,24.60
2023-09-17T09:14:48.330Z,24.68
2023-09-17T09:17:15.120Z,24.76
2023-09-17T09:19:41.983Z,24.84
2023-09-17T09:22:08.782Z,24.92
2023-09-17T09:24:42.154Z,25.02
2023-09-17T09:27:08.956Z,25.08
2023-09-17T09:29:35.610Z,25.16
2023-09-17T09:32:02.366Z,25.23
2023-09-17T09:34:29.320Z,25.30
2023-09-17T09:36:55.941Z,25.34
2023-09-17T09:39:23.377Z,25.43
2023-09-17T09:41:50.237Z,25.49
2023-09-17T09:44:16.876Z,25.56
2023-09-17T09:46:43.542Z,25.64
2023-09-17T09:49:10.190Z,25.76
2023-09-17T09:51:36.832Z,25.89
2023-09-17T09:54:04.790Z,25.98
2023-09-17T09:56:31.383Z,26.03
2023-09-17T09:58:59.813Z,26.25
2023-09-17T10:01:26.907Z,26.41
2023-09-17T10:03:58.939Z,26.52
2023-09-17T10:06:25.757Z,26.61
2023-09-17T10:08:52.688Z,26.71
2023-09-17T10:11:19.635Z,26.78
2023-09-17T10:13:46.598Z,26.86
2023-09-17T10:16:13.506Z,26.97
2023-09-17T10:18:42.043Z,27.02
2023-09-17T10:21:10.116Z,27.10
2023-09-17T10:23:37.848Z,27.21
2023-09-17T10:26:06.787Z,27.29
2023-09-17T10:28:34.419Z,27.38
2023-09-17T10:31:02.559Z,27.46
2023-09-17T10:33:32.266Z,27.54
2023-09-17T10:36:00.582Z,27.61
2023-09-17T10:38:28.636Z,27.73
2023-09-17T10:40:56.894Z,27.79
2023-09-17T10:43:25.134Z,27.83
2023-09-17T10:45:53.742Z,27.85
2023-09-17T10:48:21.879Z,27.90
2023-09-17T10:50:50.012Z,27.91
2023-09-17T10:53:16.876Z,27.95
2023-09-17T10:55:51.928Z,27.97
2023-09-17T10:58:25.784Z,28.03
2023-09-17T11:00:54.382Z,28.09
2023-09-17T11:03:24.556Z,28.14
2023-09-17T11:05:54.468Z,28.19
2023-09-17T11:08:21.591Z,28.21
2023-09-17T11:10:48.331Z,28.28
2023-09-17T11:13:15.910Z,28.28
2023-09-17T11:15:43.737Z,28.23
2023-09-17T11:18:10.563Z,28.14
2023-09-17T11:20:57.706Z,28.25
2023-09-17T11:23:44.806Z,28.25
2023-09-17T11:26:15.589Z,28.26
2023-09-17T11:28:42.437Z,28.28
2023-09-17T11:31:10.298Z,28.30
2023-09-17T11:33:38.228Z,28.32
2023-09-17T11:36:05.995Z,28.34
2023-09-17T11:38:33.017Z,28.26
2023-09-17T11:41:04.734Z,28.37
2023-09-17T11:43:33.522Z,28.42
2023-09-17T11:46:03.477Z,28.46
2023-09-17T11:48:31.580Z,28.53
2023-09-17T11:51:23.286Z,28.50
2023-09-17T11:54:04.028Z,28.50
2023-09-17T11:56:36.144Z,28.49
2023-09-17T11:59:05.462Z,28.50
2023-09-17T12:01:35.376Z,28.53
2023-09-17T12:04:07.475Z,28.55
2023-09-17T12:07:00.672Z,28.57
2023-09-17T12:10:06.452Z,28.63
2023-09-17T12:12:36.014Z,28.70
2023-09-17T12:15:06.529Z,28.75
2023-09-17T12:17:34.668Z,28.75
2023-09-17T12:20:26.148Z,28.78
2023-09-17T12:23:24.732Z,28.81
2023-09-17T12:26:01.890Z,28.88
2023-09-17T12:28:29.159Z,28.93
2023-09-17T12:30:56.901Z,28.95
2023-09-17T12:33:24.436Z,29.04
2023-09-17T12:35:52.613Z,29.13
2023-09-17T12:38:19.284Z,29.18
2023-09-17T12:40:46.031Z,29.25
2023-09-17T12:43:12.740Z,29.34
2023-09-17T12:45:39.956Z,29.43
2023-09-17T12:48:07.200Z,29.54
2023-09-17T12:50:34.138Z,29.60
2023-09-17T12:53:01.421Z,29.71
2023-09-17T12:55:28.365Z,29.78
2023-09-17T12:57:55.204Z,29.83
2023-09-17T13:00:23.217Z,29.92
2023-09-17T13:02:50.100Z,30.01
2023-09-17T13:05:22.670Z,29.99
2023-09-17T13:07:49.678Z,30.00
2023-09-17T13:10:20.458Z,29.97
2023-09-17T13:12:47.171Z,29.95
2023-09-17T13:15:13.888Z,29.96
2023-09-17T13:17:40.691Z,29.97
2023-09-17T13:20:07.854Z,29.99
2023-09-17T13:22:34.783Z,30.01
2023-09-17T13:25:01.647Z,30.02
2023-09-17T13:27:29.137Z,30.03
2023-09-17T13:29:57.758Z,30.07
2023-09-17T13:32:24.694Z,30.03
2023-09-17T13:34:51.496Z,30.10
2023-09-17T13:37:19.330Z,30.11
2023-09-17T13:39:47.731Z,30.08
2023-09-17T13:42:14.406Z,30.03
2023-09-17T13:44:43.948Z,30.02
2023-09-17T13:47:13.158Z,30.02
2023-09-17T13:49:41.166Z,30.02
2023-09-17T13:52:07.797Z,29.93
2023-09-17T13:54:34.505Z,30.06
2023-09-17T13:57:01.210Z,30.10
2023-09-17T13:59:27.856Z,30.12
2023-09-17T14:01:54.664Z,30.14
2023-09-17T14:04:21.412Z,30.15
2023-09-17T14:06:48.266Z,30.14
2023-09-17T14:09:15.239Z,30.15
2023-09-17T14:11:44.444Z,30.18
2023-09-17T14:14:11.213Z,30.21
2023-09-17T14:16:38.024Z,30.24
2023-09-17T14:19:04.860Z,30.30
2023-09-17T14:21:31.497Z,30.36
2023-09-17T14:23:58.162Z,30.44
2023-09-17T14:26:24.791Z,30.50
2023-09-17T14:28:51.886Z,30.52
2023-09-17T14:31:18.808Z,30.56
2023-09-17T14:33:45.472Z,30.55
2023-09-17T14:36:12.257Z,30.61
2023-09-17T14:38:38.910Z,30.59
2023-09-17T14:41:05.547Z,30.56
2023-09-17T14:43:32.253Z,30.50
2023-09-17T14:45:58.942Z,30.44
2023-09-17T14:48:25.632Z,30.38
2023-09-17T14:50:53.401Z,30.34
2023-09-17T14:53:20.067Z,30.28
2023-09-17T14:55:46.884Z,30.46
2023-09-17T14:58:13.662Z,30.56
2023-09-17T15:00:40.376Z,30.63
2023-09-17T15:03:07.191Z,30.66
2023-09-17T15:05:34.092Z,30.68
2023-09-17T15:08:00.837Z,30.72
2023-09-17T15:10:27.466Z,30.79
2023-09-17T15:12:54.066Z,30.85
2023-09-17T15:15:20.768Z,30.93
2023-09-17T15:17:47.485Z,30.99
2023-09-17T15:20:14.322Z,31.05
2023-09-17T15:22:41.109Z,31.13
2023-09-17T15:25:08.038Z,31.14
2023-09-17T15:27:34.694Z,31.09
2023-09-17T15:30:01.391Z,30.99
2023-09-17T15:32:28.208Z,30.83
2023-09-17T15:34:55.251Z,30.65
2023-09-17T15:37:22.052Z,30.48
2023-09-17T15:39:48.674Z,30.29
2023-09-17T15:42:15.275Z,30.14
2023-09-17T15:44:41.919Z,29.99
2023-09-17T15:47:08.590Z,29.83
2023-09-17T15:49:35.415Z,29.68
2023-09-17T15:52:04.510Z,29.57
2023-09-17T15:54:32.416Z,29.46
2023-09-17T15:56:59.046Z,29.37
2023-09-17T15:59:25.835Z,29.29
2023-09-17T16:01:52.757Z,29.23
2023-09-17T16:04:19.532Z,29.16
2023-09-17T16:06:46.392Z,29.06
2023-09-17T16:09:13.064Z,29.01
2023-09-17T16:11:39.731Z,28.95
2023-09-17T16:14:06.470Z,28.90
2023-09-17T16:16:33.281Z,28.82
2023-09-17T16:18:59.906Z,28.76
2023-09-17T16:21:26.594Z,28.70
2023-09-17T16:23:53.558Z,28.65
2023-09-17T16:26:20.583Z,28.57
2023-09-17T16:28:47.371Z,28.53
2023-09-17T16:31:14.068Z,28.49
2023-09-17T16:33:41.039Z,28.44
2023-09-17T16:36:07.751Z,28.37
2023-09-17T16:38:34.782Z,28.32
2023-09-17T16:41:02.725Z,28.25
2023-09-17T16:43:30.743Z,28.19
2023-09-17T16:45:57.491Z,28.00
2023-09-17T16:48:24.183Z,28.02
2023-09-17T16:50:50.794Z,27.97
2023-09-17T16:53:17.485Z,27.92
2023-09-17T16:59:00.247Z,27.73
2023-09-17T17:01:27.084Z,27.64
2023-09-17T17:03:53.896Z,27.57
2023-09-17T17:06:20.989Z,27.45
2023-09-17T17:08:47.655Z,27.33
2023-09-17T17:11:14.628Z,27.21
2023-09-17T17:13:41.317Z,27.10
2023-09-17T17:16:08.040Z,26.98
2023-09-17T17:18:34.720Z,26.85
2023-09-17T17:21:04.414Z,26.71
2023-09-17T17:23:31.899Z,26.58
2023-09-17T17:25:58.897Z,26.45
2023-09-17T17:28:27.093Z,26.33
2023-09-17T17:30:56.077Z,26.20
2023-09-17T17:33:22.778Z,26.08
2023-09-17T17:35:49.648Z,25.97
2023-09-17T17:38:16.352Z,25.86
2023-09-17T17:40:43.041Z,25.73
2023-09-17T17:43:09.821Z,25.63
2023-09-17T17:45:36.767Z,25.52
2023-09-17T17:48:03.562Z,25.42
2023-09-17T17:50:30.683Z,25.31
2023-09-17T17:52:57.512Z,25.23
2023-09-17T17:55:24.215Z,25.14
2023-09-17T17:57:50.814Z,25.03
2023-09-17T18:00:17.460Z,24.96
2023-09-17T18:02:44.393Z,24.88
2023-09-17T18:05:11.259Z,24.77
2023-09-17T18:07:39.085Z,24.71
2023-09-17T18:10:08.303Z,24.60
2023-09-17T18:12:35.783Z,24.54
2023-09-17T18:15:07.256Z,24.45
2023-09-17T18:17:34.275Z,24.39
2023-09-17T18:20:01.568Z,24.32
2023-09-17T18:22:28.345Z,24.26
2023-09-17T18:24:55.178Z,24.20
2023-09-17T18:27:21.921Z,24.15
2023-09-17T18:29:49.144Z,24.11
2023-09-17T18:32:15.858Z,24.04
2023-09-17T18:34:42.560Z,23.99
2023-09-17T18:37:09.274Z,23.95
2023-09-17T18:39:35.951Z,23.89
2023-09-17T18:42:02.638Z,23.86
2023-09-17T18:44:29.398Z,23.81
2023-09-17T18:46:56.770Z,23.76
2023-09-17T18:49:23.507Z,23.72
2023-09-17T18:51:50.129Z,23.68
2023-09-17T18:54:16.832Z,23.65
2023-09-17T18:56:44.063Z,23.61
2023-09-17T18:59:11.683Z,23.57
2023-09-17T19:01:39.116Z,23.56
2023-09-17T19:04:05.880Z,23.54
2023-09-17T19:06:32.582Z,23.52
2023-09-17T19:08:59.306Z,23.53
2023-09-17T19:11:28.281Z,23.52
2023-09-17T19:13:55.098Z,23.51
2023-09-17T19:16:21.843Z,23.51
2023-09-17T19:18:48.522Z,23.49
2023-09-17T19:21:16.643Z,23.46
2023-09-17T19:23:45.257Z,23.43
2023-09-17T19:26:13.976Z,23.41
2023-09-17T19:28:40.806Z,23.39
2023-09-17T19:31:08.005Z,23.35
2023-09-17T19:33:34.749Z,23.31
2023-09-17T19:36:01.427Z,23.29
2023-09-17T19:38:29.244Z,23.25
2023-09-17T19:40:55.897Z,23.23
2023-09-17T19:43:23.325Z,23.22
2023-09-17T19:45:51.609Z,23.17
2023-09-17T19:48:18.554Z,23.15
2023-09-17T19:50:47.929Z,23.13
2023-09-17T19:53:15.274Z,23.10
2023-09-17T19:55:42.499Z,23.09
2023-09-17T19:58:09.347Z,23.06
2023-09-17T20:00:36.134Z,23.04
2023-09-17T20:03:02.951Z,23.02
2023-09-17T20:05:29.805Z,23.00
2023-09-17T20:07:56.527Z,22.99
2023-09-17T20:10:23.305Z,22.96
2023-09-17T20:12:49.935Z,22.95
2023-09-17T20:15:16.704Z,22.93
2023-09-17T20:17:43.513Z,22.91
2023-09-17T20:20:11.050Z,22.90
2023-09-17T20:22:43.137Z,22.88
2023-09-17T20:25:10.426Z,22.85
2023-09-17T20:27:37.090Z,22.82
2023-09-17T20:30:04.329Z,22.84
2023-09-17T20:32:31.050Z,22.78
2023-09-17T20:34:57.822Z,22.79
2023-09-17T20:37:24.652Z,22.77
2023-09-17T20:39:51.376Z,22.76
2023-09-17T20:42:18.175Z,22.73
2023-09-17T20:44:44.812Z,22.71
2023-09-17T20:47:11.563Z,22.69
2023-09-17T20:52:20.196Z,22.64
2023-09-17T20:54:46.936Z,22.63
2023-09-17T20:57:13.618Z,22.60
2023-09-17T20:59:40.288Z,22.59
2023-09-17T21:02:07.003Z,22.57
2023-09-17T21:04:33.989Z,22.55
2023-09-17T21:07:00.737Z,22.53
2023-09-17T21:09:28.592Z,22.54
2023-09-17T21:11:55.646Z,22.49
2023-09-17T21:14:25.056Z,22.49
2023-09-17T21:16:51.844Z,22.47
2023-09-17T21:19:18.535Z,22.46
2023-09-17T21:21:45.198Z,22.43
2023-09-17T21:24:11.917Z,22.43
2023-09-17T21:26:38.540Z,22.42
2023-09-17T21:29:05.211Z,22.41
2023-09-17T21:31:32.218Z,22.40
2023-09-17T21:33:59.014Z,22.39
2023-09-17T21:36:25.671Z,22.38
2023-09-17T21:38:52.863Z,22.37
2023-09-17T21:41:19.905Z,22.34
2023-09-17T21:43:46.690Z,22.32
2023-09-17T21:46:13.585Z,22.31
2023-09-17T21:48:40.226Z,22.31
2023-09-17T21:51:07.129Z,22.27
2023-09-17T21:53:33.909Z,22.25
2023-09-17T21:56:00.715Z,22.22
2023-09-17T21:58:27.514Z,22.21
2023-09-17T22:00:54.534Z,22.20
2023-09-17T22:03:21.960Z,22.17
2023-09-17T22:05:49.001Z,22.12
2023-09-17T22:08:15.930Z,22.06
2023-09-17T22:10:42.899Z,22.05
2023-09-17T22:13:09.615Z,22.03
2023-09-17T22:15:36.545Z,22.03
2023-09-17T22:18:04.027Z,22.01
2023-09-17T22:20:33.371Z,21.98
2023-09-17T22:23:00.351Z,21.96
2023-09-17T22:25:27.198Z,21.95
2023-09-17T22:27:54.903Z,21.92
2023-09-17T22:30:21.715Z,21.89
2023-09-17T22:32:48.372Z,21.90
2023-09-17T22:35:15.169Z,21.89
2023-09-17T22:37:42.029Z,21.89
2023-09-17T22:40:09.241Z,21.89
2023-09-17T22:42:36.095Z,21.88
2023-09-17T22:45:04.843Z,21.84
2023-09-17T22:47:32.273Z,21.84
2023-09-17T22:49:59.389Z,21.82
2023-09-17T22:52:26.212Z,21.84
2023-09-17T22:54:53.095Z,21.81
2023-09-17T22:57:19.997Z,21.82
2023-09-17T22:59:46.860Z,21.81
2023-09-17T23:02:13.804Z,21.78
2023-09-17T23:04:40.841Z,21.78
2023-09-17T23:07:10.134Z,21.76
2023-09-17T23:09:37.088Z,21.77
2023-09-17T23:12:04.217Z,21.78
2023-09-17T23:14:31.345Z,21.76
2023-09-17T23:16:58.186Z,21.78
2023-09-17T23:19:24.947Z,21.79
2023-09-17T23:21:51.663Z,21.76
2023-09-17T23:24:18.347Z,21.78
2023-09-17T23:26:45.008Z,21.78
2023-09-17T23:29:11.741Z,21.78
2023-09-17T23:31:41.258Z,21.78
2023-09-17T23:34:08.083Z,21.78
2023-09-17T23:36:35.024Z,21.74
2023-09-17T23:39:01.886Z,21.73
2023-09-17T23:41:28.772Z,21.71
2023-09-17T23:43:55.490Z,21.70
2023-09-17T23:46:22.270Z,21.67
2023-09-17T23:48:49.074Z,21.64
2023-09-17T23:51:16.101Z,21.60
2023-09-17T23:53:42.796Z,21.58
2023-09-17T23:56:09.720Z,21.56
2023-09-17T23:58:36.518Z,21.55
